Time;durP1;ratioP1;P1;durP2;ratioP2;P2;SDS_P1;SDS_P2;PMS_P1;PMS_P2;Temp;Humidity;BMP_temperature;BMP_pressure;BME280_temperature;BME280_humidity;BME280_pressure;Samples;Min_cycle;Max_cycle;Signal;HPM_P1;HPM_P2
2022/06/17 00:01:19;;;;;;;;;;;23.40;96.30;;;;;;5073873;28;19915;-53
2022/06/17 00:03:45;;;;;;;;;;;23.40;96.20;;;;;;5074193;28;19909;-54
2022/06/17 00:06:11;;;;;;;;;;;23.40;96.20;;;;;;5060076;28;19908;-54
2022/06/17 00:08:40;;;;;;;;;;;23.40;96.20;;;;;;5077954;28;19912;-53
2022/06/17 00:11:10;;;;;;;;;;;23.40;96.20;;;;;;5077870;28;19915;-54
2022/06/17 00:13:36;;;;;;;;;;;23.30;96.20;;;;;;5059792;28;20006;-51
2022/06/17 00:16:01;;;;;;;;;;;23.40;96.10;;;;;;5059757;28;19985;-53
2022/06/17 00:18:27;;;;;;;;;;;23.40;96.10;;;;;;5077717;28;19912;-51
2022/06/17 00:20:52;;;;;;;;;;;23.40;96.10;;;;;;5077402;28;19986;-51
2022/06/17 00:23:19;;;;;;;;;;;23.40;96.10;;;;;;5077334;28;19915;-50
2022/06/17 00:25:45;;;;;;;;;;;23.40;96.10;;;;;;5077579;28;19962;-54
2022/06/17 00:28:12;;;;;;;;;;;23.40;96.10;;;;;;5077432;28;19977;-55
2022/06/17 00:30:38;;;;;;;;;;;23.40;96.10;;;;;;5077522;28;19999;-53
2022/06/17 00:33:04;;;;;;;;;;;23.40;96.20;;;;;;5077370;28;19959;-50
2022/06/17 00:35:34;;;;;;;;;;;23.40;96.10;;;;;;5077515;28;19959;-51
2022/06/17 00:37:59;;;;;;;;;;;23.30;96.10;;;;;;5077396;28;20385;-52
2022/06/17 00:40:26;;;;;;;;;;;23.40;96.40;;;;;;5077068;28;19909;-53
2022/06/17 00:42:52;;;;;;;;;;;23.40;96.10;;;;;;5077002;28;20379;-52
2022/06/17 00:45:24;;;;;;;;;;;23.40;96.20;;;;;;5076961;28;19909;-54
2022/06/17 00:48:01;;;;;;;;;;;23.30;96.10;;;;;;5076801;28;19998;-52
2022/06/17 00:50:36;;;;;;;;;;;23.30;96.40;;;;;;5077198;28;19908;-53
2022/06/17 00:53:01;;;;;;;;;;;23.40;96.20;;;;;;5077005;28;19999;-54
2022/06/17 00:55:32;;;;;;;;;;;23.30;96.10;;;;;;5076611;28;20005;-53
2022/06/17 00:58:00;;;;;;;;;;;23.40;96.20;;;;;;5076759;28;19908;-53
2022/06/17 01:00:27;;;;;;;;;;;23.30;96.10;;;;;;5076881;28;20366;-53
2022/06/17 01:03:00;;;;;;;;;;;23.30;96.10;;;;;;5076430;28;20359;-55
2022/06/17 01:05:34;;;;;;;;;;;23.30;96.10;;;;;;5077193;28;19909;-56
2022/06/17 01:08:02;;;;;;;;;;;23.30;96.10;;;;;;5076593;28;20421;-55
2022/06/17 01:10:28;;;;;;;;;;;23.30;96.10;;;;;;5058695;28;19908;-51
2022/06/17 01:13:02;;;;;;;;;;;23.30;96.20;;;;;;5076348;28;20348;-54
2022/06/17 01:15:29;;;;;;;;;;;23.30;96.10;;;;;;5076416;28;19917;-55
2022/06/17 01:17:55;;;;;;;;;;;23.30;96.10;;;;;;5076291;28;19909;-55
2022/06/17 01:20:21;;;;;;;;;;;23.30;96.10;;;;;;5076262;28;20279;-53
2022/06/17 01:22:52;;;;;;;;;;;23.30;96.10;;;;;;5076391;28;20003;-52
2022/06/17 01:25:17;;;;;;;;;;;23.30;96.10;;;;;;5076268;28;19958;-53
2022/06/17 01:27:47;;;;;;;;;;;23.30;96.10;;;;;;5058762;28;19912;-55
2022/06/17 01:30:16;;;;;;;;;;;23.30;96.10;;;;;;5076260;28;19959;-51
2022/06/17 01:32:49;;;;;;;;;;;23.30;96.10;;;;;;5076353;28;19909;-54
2022/06/17 01:35:14;;;;;;;;;;;23.30;96.10;;;;;;5075969;28;19917;-54
2022/06/17 01:37:40;;;;;;;;;;;23.30;96.10;;;;;;5075854;28;19962;-53
2022/06/17 01:40:06;;;;;;;;;;;23.30;96.10;;;;;;5076225;28;20050;-55
2022/06/17 01:42:34;;;;;;;;;;;23.30;96.10;;;;;;5076092;28;19952;-55
2022/06/17 01:44:59;;;;;;;;;;;23.30;96.10;;;;;;5076156;28;19915;-56
2022/06/17 01:47:27;;;;;;;;;;;23.30;96.30;;;;;;5075718;28;19934;-54
2022/06/17 01:49:55;;;;;;;;;;;23.30;96.10;;;;;;5075671;28;19920;-55
2022/06/17 01:52:20;;;;;;;;;;;23.30;96.10;;;;;;5075960;28;20272;-54
2022/06/17 01:55:06;;;;;;;;;;;23.30;96.10;;;;;;5057687;28;19928;-53
2022/06/17 01:57:35;;;;;;;;;;;23.30;96.10;;;;;;5058027;28;19930;-53
2022/06/17 02:00:06;;;;;;;;;;;23.30;96.10;;;;;;5075903;28;19908;-54
2022/06/17 02:02:32;;;;;;;;;;;23.30;96.10;;;;;;5075916;28;19909;-56
2022/06/17 02:05:00;;;;;;;;;;;23.30;96.10;;;;;;5075330;28;19915;-54
2022/06/17 02:07:45;;;;;;;;;;;23.30;96.10;;;;;;5075400;28;20425;-52
2022/06/17 02:10:11;;;;;;;;;;;23.30;96.10;;;;;;5075258;28;19913;-51
2022/06/17 02:12:36;;;;;;;;;;;23.30;96.10;;;;;;5075195;28;19962;-51
2022/06/17 02:15:02;;;;;;;;;;;23.30;96.10;;;;;;5075407;28;20329;-53
2022/06/17 02:17:31;;;;;;;;;;;23.30;96.10;;;;;;5075401;28;19913;-53
2022/06/17 02:19:57;;;;;;;;;;;23.30;96.10;;;;;;5075125;28;20359;-54
2022/06/17 02:22:25;;;;;;;;;;;23.30;96.10;;;;;;5075049;28;19912;-54
2022/06/17 02:24:51;;;;;;;;;;;23.30;96.10;;;;;;5075379;28;19908;-54
2022/06/17 02:27:17;;;;;;;;;;;23.30;96.10;;;;;;5074467;28;19908;-54
2022/06/17 02:29:43;;;;;;;;;;;23.30;96.00;;;;;;5074883;28;19913;-51
2022/06/17 02:32:10;;;;;;;;;;;23.30;96.00;;;;;;5074829;28;19908;-52
2022/06/17 02:34:41;;;;;;;;;;;23.30;96.00;;;;;;5075171;28;19916;-53
2022/06/17 02:37:10;;;;;;;;;;;23.30;96.00;;;;;;5075082;28;19919;-54
2022/06/17 02:39:38;;;;;;;;;;;23.30;96.00;;;;;;5075022;28;19909;-55
2022/06/17 02:42:03;;;;;;;;;;;23.30;96.00;;;;;;5074781;28;20321;-54
2022/06/17 02:44:31;;;;;;;;;;;23.30;96.00;;;;;;5074646;28;19908;-55
2022/06/17 02:47:00;;;;;;;;;;;23.30;96.00;;;;;;5074622;28;20359;-54
2022/06/17 02:49:27;;;;;;;;;;;23.30;96.00;;;;;;5074545;28;19916;-53
2022/06/17 02:51:53;;;;;;;;;;;23.30;96.00;;;;;;5074759;28;19913;-55
2022/06/17 02:54:26;;;;;;;;;;;23.30;96.00;;;;;;5074149;28;19960;-56
2022/06/17 02:56:53;;;;;;;;;;;23.30;96.00;;;;;;5074779;28;19908;-54
2022/06/17 02:59:30;;;;;;;;;;;23.30;96.00;;;;;;5074602;28;19915;-54
2022/06/17 03:01:58;;;;;;;;;;;23.30;96.00;;;;;;5074919;28;19912;-54
2022/06/17 03:04:25;;;;;;;;;;;23.30;95.90;;;;;;5074586;28;20007;-53
2022/06/17 03:06:50;;;;;;;;;;;23.30;95.90;;;;;;5074430;28;19908;-53
2022/06/17 03:09:21;;;;;;;;;;;23.30;96.20;;;;;;5074009;28;19970;-56
2022/06/17 03:11:49;;;;;;;;;;;23.30;95.90;;;;;;5074429;28;19908;-55
2022/06/17 03:14:15;;;;;;;;;;;23.30;95.90;;;;;;5074179;28;19920;-50
2022/06/17 03:16:41;;;;;;;;;;;23.30;95.90;;;;;;5074062;28;19912;-55
2022/06/17 03:19:06;;;;;;;;;;;23.30;95.90;;;;;;5074028;28;19995;-52
2022/06/17 03:21:33;;;;;;;;;;;23.30;95.90;;;;;;5074449;28;19917;-53
2022/06/17 03:24:05;;;;;;;;;;;23.30;95.90;;;;;;5074302;28;19989;-54
2022/06/17 03:26:38;;;;;;;;;;;23.30;95.90;;;;;;5074254;28;19909;-54
2022/06/17 03:29:06;;;;;;;;;;;23.30;95.90;;;;;;5056369;28;19932;-54
2022/06/17 03:31:31;;;;;;;;;;;23.30;95.90;;;;;;5056162;28;19909;-52
2022/06/17 03:33:59;;;;;;;;;;;23.30;95.90;;;;;;5073776;28;20274;-55
2022/06/17 03:36:31;;;;;;;;;;;23.30;95.90;;;;;;5074022;28;19919;-52
2022/06/17 03:38:58;;;;;;;;;;;23.30;95.90;;;;;;5074052;28;19940;-53
2022/06/17 03:41:27;;;;;;;;;;;23.30;95.90;;;;;;5074126;28;20279;-53
2022/06/17 03:43:55;;;;;;;;;;;23.30;95.90;;;;;;5074221;28;19913;-55
2022/06/17 03:46:22;;;;;;;;;;;23.20;95.80;;;;;;5056115;28;19908;-55
2022/06/17 03:48:54;;;;;;;;;;;23.30;95.90;;;;;;5073908;28;19908;-53
2022/06/17 03:51:21;;;;;;;;;;;23.30;95.80;;;;;;5073545;28;20402;-53
2022/06/17 03:53:48;;;;;;;;;;;23.30;95.80;;;;;;5073705;28;19917;-54
2022/06/17 03:56:17;;;;;;;;;;;23.30;95.80;;;;;;5073860;28;19920;-51
2022/06/17 03:58:43;;;;;;;;;;;23.30;95.80;;;;;;5073919;28;19912;-52
2022/06/17 04:01:16;;;;;;;;;;;23.30;95.80;;;;;;5073672;28;19915;-54
2022/06/17 04:03:45;;;;;;;;;;;23.40;95.80;;;;;;5073609;28;19908;-52
2022/06/17 04:06:16;;;;;;;;;;;23.40;95.70;;;;;;5073887;28;20050;-52
2022/06/17 04:08:50;;;;;;;;;;;23.30;95.60;;;;;;5073731;28;20315;-54
2022/06/17 04:11:16;;;;;;;;;;;23.40;95.70;;;;;;5073436;28;19908;-53
2022/06/17 04:13:42;;;;;;;;;;;23.40;95.60;;;;;;5073382;28;20019;-53
2022/06/17 04:16:25;;;;;;;;;;;23.40;95.50;;;;;;5073349;28;19993;-55
2022/06/17 04:18:51;;;;;;;;;;;23.40;95.70;;;;;;5073386;28;20001;-53
2022/06/17 04:21:16;;;;;;;;;;;23.40;95.40;;;;;;5073402;28;20089;-53
2022/06/17 04:23:44;;;;;;;;;;;23.40;95.40;;;;;;5073279;28;19982;-52
2022/06/17 04:26:14;;;;;;;;;;;23.40;95.30;;;;;;5073296;28;19908;-55
2022/06/17 04:28:43;;;;;;;;;;;23.40;95.40;;;;;;5073356;28;20274;-54
2022/06/17 04:31:12;;;;;;;;;;;23.40;95.40;;;;;;5073593;28;19959;-54
2022/06/17 04:33:44;;;;;;;;;;;23.40;95.30;;;;;;5073152;28;19924;-52
2022/06/17 04:36:09;;;;;;;;;;;23.50;95.40;;;;;;5055628;28;19909;-55
2022/06/17 04:38:46;;;;;;;;;;;23.40;95.40;;;;;;5073252;28;20378;-54
2022/06/17 04:41:13;;;;;;;;;;;23.40;95.40;;;;;;5073204;28;19908;-56
2022/06/17 04:43:41;;;;;;;;;;;23.40;95.40;;;;;;5073151;28;19962;-57
2022/06/17 04:46:09;;;;;;;;;;;23.40;95.30;;;;;;5073162;28;19915;-53
2022/06/17 04:48:35;;;;;;;;;;;23.40;95.30;;;;;;5073484;28;19909;-54
2022/06/17 04:51:01;;;;;;;;;;;23.40;95.40;;;;;;5075322;28;19909;-51
2022/06/17 04:53:28;;;;;;;;;;;23.40;95.40;;;;;;5076682;28;19916;-54
2022/06/17 04:55:53;;;;;;;;;;;23.40;95.40;;;;;;5076445;28;19921;-55
2022/06/17 04:58:21;;;;;;;;;;;23.40;95.40;;;;;;5077001;28;19915;-51
2022/06/17 05:00:48;;;;;;;;;;;23.40;95.50;;;;;;5058733;28;19916;-55
2022/06/17 05:03:14;;;;;;;;;;;23.40;95.50;;;;;;5076829;28;19908;-55
2022/06/17 05:05:41;;;;;;;;;;;23.40;95.50;;;;;;5076874;28;19908;-54
2022/06/17 05:08:11;;;;;;;;;;;23.40;95.50;;;;;;5076486;28;19908;-55
2022/06/17 05:10:39;;;;;;;;;;;23.40;95.50;;;;;;5076514;28;19908;-54
2022/06/17 05:13:12;;;;;;;;;;;23.40;95.50;;;;;;5076253;28;19915;-56
2022/06/17 05:15:38;;;;;;;;;;;23.40;95.60;;;;;;5076200;28;20336;-55
2022/06/17 05:18:03;;;;;;;;;;;23.40;95.50;;;;;;5076405;28;19991;-54
2022/06/17 05:20:29;;;;;;;;;;;23.40;95.60;;;;;;5076373;28;19909;-54
2022/06/17 05:22:56;;;;;;;;;;;23.40;95.50;;;;;;5058404;28;19913;-53
2022/06/17 05:25:28;;;;;;;;;;;23.40;95.50;;;;;;5076206;28;19915;-54
2022/06/17 05:27:54;;;;;;;;;;;23.40;95.50;;;;;;5076632;28;19909;-53
2022/06/17 05:30:20;;;;;;;;;;;23.40;95.50;;;;;;5076296;28;19909;-52
2022/06/17 05:32:47;;;;;;;;;;;23.40;95.50;;;;;;5076362;28;20278;-54
2022/06/17 05:35:13;;;;;;;;;;;23.40;95.50;;;;;;5076171;28;19924;-55
2022/06/17 05:37:39;;;;;;;;;;;23.40;95.50;;;;;;5075806;28;19909;-56
2022/06/17 05:40:05;;;;;;;;;;;23.50;95.60;;;;;;5075899;28;19915;-54
2022/06/17 05:42:31;;;;;;;;;;;23.50;95.50;;;;;;5075866;28;19915;-55
2022/06/17 05:44:56;;;;;;;;;;;23.40;95.50;;;;;;5076046;28;19908;-55
2022/06/17 05:47:22;;;;;;;;;;;23.50;95.60;;;;;;5075835;28;19991;-53
2022/06/17 05:49:47;;;;;;;;;;;23.40;95.60;;;;;;5075700;28;19999;-52
2022/06/17 05:52:13;;;;;;;;;;;23.40;95.60;;;;;;5075665;28;19908;-51
2022/06/17 05:54:38;;;;;;;;;;;23.50;95.60;;;;;;5075686;28;19921;-54
2022/06/17 05:57:04;;;;;;;;;;;23.50;95.50;;;;;;5075309;28;19908;-56
2022/06/17 05:59:29;;;;;;;;;;;23.50;95.50;;;;;;5075272;28;19909;-55
2022/06/17 06:01:55;;;;;;;;;;;23.50;95.50;;;;;;5074164;28;19951;-53
2022/06/17 06:04:21;;;;;;;;;;;23.50;95.60;;;;;;5075542;28;20003;-54
2022/06/17 06:06:47;;;;;;;;;;;23.50;95.60;;;;;;5075135;28;20324;-53
2022/06/17 06:09:13;;;;;;;;;;;23.50;95.60;;;;;;5057637;28;19912;-56
2022/06/17 06:11:38;;;;;;;;;;;23.50;95.60;;;;;;5075619;28;20034;-52
2022/06/17 06:14:04;;;;;;;;;;;23.50;95.60;;;;;;5074889;28;20016;-54
2022/06/17 06:16:30;;;;;;;;;;;23.50;95.60;;;;;;5075152;28;20022;-56
2022/06/17 06:18:55;;;;;;;;;;;23.50;95.60;;;;;;5075063;28;19919;-55
2022/06/17 06:21:21;;;;;;;;;;;23.50;95.60;;;;;;5075099;28;19909;-54
2022/06/17 06:23:46;;;;;;;;;;;23.50;95.60;;;;;;5075114;28;19917;-55
2022/06/17 06:26:13;;;;;;;;;;;23.50;95.60;;;;;;5075149;28;19912;-53
2022/06/17 06:28:39;;;;;;;;;;;23.50;95.60;;;;;;5074607;28;19930;-54
2022/06/17 06:31:23;;;;;;;;;;;23.50;95.50;;;;;;5074626;28;20438;-50
2022/06/17 06:33:48;;;;;;;;;;;23.50;95.60;;;;;;5074460;28;19912;-56
2022/06/17 06:36:14;;;;;;;;;;;23.50;95.60;;;;;;5074834;28;19913;-54
2022/06/17 06:38:40;;;;;;;;;;;23.50;95.60;;;;;;5074887;28;19962;-54
2022/06/17 06:41:05;;;;;;;;;;;23.50;95.60;;;;;;5074726;28;19912;-55
2022/06/17 06:43:31;;;;;;;;;;;23.50;95.60;;;;;;5074340;28;19912;-52
2022/06/17 06:45:57;;;;;;;;;;;23.50;95.60;;;;;;5074365;28;19909;-53
2022/06/17 06:48:24;;;;;;;;;;;23.50;95.60;;;;;;5074189;28;19912;-54
2022/06/17 06:50:49;;;;;;;;;;;23.50;95.60;;;;;;5074193;28;20426;-55
2022/06/17 06:53:15;;;;;;;;;;;23.50;95.70;;;;;;5074270;28;19952;-54
2022/06/17 06:55:41;;;;;;;;;;;23.50;95.60;;;;;;5056300;28;19920;-53
2022/06/17 06:58:11;;;;;;;;;;;23.50;95.70;;;;;;5074695;28;20297;-53
2022/06/17 07:00:38;;;;;;;;;;;23.50;95.60;;;;;;5074231;28;19912;-52
2022/06/17 07:03:04;;;;;;;;;;;23.50;95.60;;;;;;5056329;28;19908;-54
2022/06/17 07:05:30;;;;;;;;;;;23.50;95.60;;;;;;5074554;28;19908;-54
2022/06/17 07:07:56;;;;;;;;;;;23.50;95.60;;;;;;5074105;28;20270;-53
2022/06/17 07:10:25;;;;;;;;;;;23.50;95.60;;;;;;5074031;28;19951;-54
2022/06/17 07:12:50;;;;;;;;;;;23.50;95.60;;;;;;5073841;28;19909;-52
2022/06/17 07:15:16;;;;;;;;;;;23.50;95.60;;;;;;5074100;28;20378;-54
2022/06/17 07:18:05;;;;;;;;;;;23.50;95.60;;;;;;5056016;28;19909;-52
2022/06/17 07:20:36;;;;;;;;;;;23.50;95.60;;;;;;5060368;28;19916;-53
2022/06/17 07:23:03;;;;;;;;;;;23.50;95.70;;;;;;5074008;28;19954;-50
2022/06/17 07:25:29;;;;;;;;;;;23.50;95.70;;;;;;5074013;28;19953;-56
2022/06/17 07:27:54;;;;;;;;;;;23.50;95.70;;;;;;5074080;28;20309;-55
2022/06/17 07:30:20;;;;;;;;;;;23.50;95.70;;;;;;5073962;28;19908;-55
2022/06/17 07:32:46;;;;;;;;;;;23.50;95.60;;;;;;5073902;28;19909;-56
2022/06/17 07:35:12;;;;;;;;;;;23.50;95.70;;;;;;5073910;28;19916;-53
2022/06/17 07:40:22;;;;;;;;;;;23.50;95.70;;;;;;5073856;28;19931;-54
2022/06/17 07:42:47;;;;;;;;;;;23.50;95.70;;;;;;5073487;28;20367;-55
2022/06/17 07:45:15;;;;;;;;;;;23.50;95.70;;;;;;5073791;28;19912;-54
2022/06/17 07:47:42;;;;;;;;;;;23.50;95.70;;;;;;5073690;28;19909;-56
2022/06/17 07:50:09;;;;;;;;;;;23.50;95.70;;;;;;5073704;28;19908;-54
2022/06/17 07:52:34;;;;;;;;;;;23.50;95.70;;;;;;5073603;28;19915;-54
2022/06/17 07:55:00;;;;;;;;;;;23.50;95.80;;;;;;5073357;28;19925;-56
2022/06/17 07:57:25;;;;;;;;;;;23.50;95.70;;;;;;5073356;28;20266;-55
2022/06/17 07:59:51;;;;;;;;;;;23.50;95.70;;;;;;5073681;28;19909;-55
2022/06/17 08:02:16;;;;;;;;;;;23.50;95.80;;;;;;5073656;28;19909;-52
2022/06/17 08:04:42;;;;;;;;;;;23.50;95.80;;;;;;5073281;28;19917;-55
2022/06/17 08:07:08;;;;;;;;;;;23.50;95.80;;;;;;5073587;28;19908;-54
2022/06/17 08:09:33;;;;;;;;;;;23.50;95.80;;;;;;5073440;28;19916;-50
2022/06/17 08:11:59;;;;;;;;;;;23.50;95.80;;;;;;5055260;28;19908;-56
2022/06/17 08:14:24;;;;;;;;;;;23.50;95.80;;;;;;5073482;28;19912;-54
2022/06/17 08:16:50;;;;;;;;;;;23.50;95.80;;;;;;5073267;28;20342;-55
2022/06/17 08:19:16;;;;;;;;;;;23.50;95.90;;;;;;5073125;28;19908;-54
2022/06/17 08:21:41;;;;;;;;;;;23.50;95.90;;;;;;5055507;28;19908;-53
2022/06/17 08:24:08;;;;;;;;;;;23.50;95.90;;;;;;5073211;28;20323;-55
2022/06/17 08:26:34;;;;;;;;;;;23.50;96.20;;;;;;5076054;28;19909;-55
2022/06/17 08:28:59;;;;;;;;;;;23.50;95.90;;;;;;5076919;28;19908;-54
2022/06/17 08:31:25;;;;;;;;;;;23.50;96.00;;;;;;5077662;28;19962;-55
2022/06/17 08:33:50;;;;;;;;;;;23.50;95.90;;;;;;5077102;28;20390;-56
2022/06/17 08:36:22;;;;;;;;;;;23.50;96.00;;;;;;5077204;28;19916;-54
2022/06/17 08:38:50;;;;;;;;;;;23.50;96.00;;;;;;5058963;28;19909;-54
2022/06/17 08:41:24;;;;;;;;;;;23.50;96.00;;;;;;5059069;28;19909;-52
2022/06/17 08:43:58;;;;;;;;;;;23.50;96.00;;;;;;5077065;28;19915;-54
2022/06/17 08:46:43;;;;;;;;;;;23.50;96.00;;;;;;5077042;28;19915;-55
2022/06/17 08:49:14;;;;;;;;;;;23.50;96.00;;;;;;5058978;28;19961;-55
2022/06/17 08:51:46;;;;;;;;;;;23.50;96.00;;;;;;5076631;28;19940;-55
2022/06/17 08:54:24;;;;;;;;;;;23.50;96.00;;;;;;5076484;28;19916;-55
2022/06/17 08:57:09;;;;;;;;;;;23.50;96.00;;;;;;5076662;28;19996;-55
2022/06/17 08:59:42;;;;;;;;;;;23.50;96.00;;;;;;5076605;28;19908;-55
2022/06/17 09:02:28;;;;;;;;;;;23.50;96.00;;;;;;5076544;28;19951;-53
2022/06/17 09:04:59;;;;;;;;;;;23.50;96.10;;;;;;5076278;28;20317;-57
2022/06/17 09:07:38;;;;;;;;;;;23.50;96.00;;;;;;5076135;28;19915;-54
2022/06/17 09:10:18;;;;;;;;;;;23.50;96.00;;;;;;5076403;28;19940;-54
2022/06/17 09:12:44;;;;;;;;;;;23.50;96.00;;;;;;5076102;28;19954;-56
2022/06/17 09:15:24;;;;;;;;;;;23.50;96.10;;;;;;5076001;28;19913;-56
2022/06/17 09:18:10;;;;;;;;;;;23.50;96.10;;;;;;5076136;28;19919;-52
2022/06/17 09:20:38;;;;;;;;;;;23.50;96.10;;;;;;5076605;28;19956;-56
2022/06/17 09:23:05;;;;;;;;;;;23.50;96.10;;;;;;5076116;28;19962;-54
2022/06/17 09:25:44;;;;;;;;;;;23.50;96.10;;;;;;5076304;28;19999;-57
2022/06/17 09:28:12;;;;;;;;;;;23.50;96.10;;;;;;5075977;28;19955;-55
2022/06/17 09:30:40;;;;;;;;;;;23.50;96.10;;;;;;5075958;28;19909;-55
2022/06/17 09:33:09;;;;;;;;;;;23.50;96.10;;;;;;5058220;28;19915;-56
2022/06/17 09:35:35;;;;;;;;;;;23.50;96.10;;;;;;5075645;28;19970;-57
2022/06/17 09:38:07;;;;;;;;;;;23.50;96.20;;;;;;5075759;28;19915;-53
2022/06/17 09:40:39;;;;;;;;;;;23.50;96.20;;;;;;5075896;28;19912;-55
2022/06/17 09:43:17;;;;;;;;;;;23.50;96.20;;;;;;5057743;28;20307;-53
2022/06/17 09:45:43;;;;;;;;;;;23.50;96.10;;;;;;5075877;28;19920;-54
2022/06/17 09:48:15;;;;;;;;;;;23.50;96.10;;;;;;5075382;28;19908;-52
2022/06/17 09:50:50;;;;;;;;;;;23.60;96.20;;;;;;5075698;28;19909;-53
2022/06/17 09:53:24;;;;;;;;;;;23.50;96.10;;;;;;5075379;28;20008;-52
2022/06/17 09:55:53;;;;;;;;;;;23.50;96.10;;;;;;5075947;28;19920;-54
2022/06/17 09:58:22;;;;;;;;;;;23.50;96.10;;;;;;5075530;28;19908;-54
2022/06/17 10:00:49;;;;;;;;;;;23.50;96.20;;;;;;5074909;28;20386;-56
2022/06/17 10:03:35;;;;;;;;;;;23.50;96.20;;;;;;5075538;28;19912;-55
2022/06/17 10:06:14;;;;;;;;;;;23.60;96.20;;;;;;5074356;28;19909;-50
2022/06/17 10:08:52;;;;;;;;;;;23.60;96.30;;;;;;5057136;28;20368;-54
2022/06/17 10:11:20;;;;;;;;;;;23.60;96.30;;;;;;5075200;28;20003;-54
2022/06/17 10:14:03;;;;;;;;;;;23.60;96.30;;;;;;5074826;28;19923;-55
2022/06/17 10:19:50;;;;;;;;;;;23.60;96.30;;;;;;5074826;28;20378;-53
2022/06/17 10:22:21;;;;;;;;;;;23.60;96.30;;;;;;5075161;28;19908;-53
2022/06/17 10:25:02;;;;;;;;;;;23.60;96.30;;;;;;5075014;28;19999;-56
2022/06/17 10:27:46;;;;;;;;;;;23.60;96.30;;;;;;5074440;28;19985;-52
2022/06/17 10:30:30;;;;;;;;;;;23.60;96.30;;;;;;5075094;28;19909;-54
2022/06/17 10:32:56;;;;;;;;;;;23.60;96.30;;;;;;5074632;28;19915;-55
2022/06/17 10:35:24;;;;;;;;;;;23.60;96.40;;;;;;5074256;28;19916;-55
2022/06/17 10:37:50;;;;;;;;;;;23.60;96.30;;;;;;5074423;28;19951;-54
2022/06/17 10:40:17;;;;;;;;;;;23.50;96.30;;;;;;5074425;28;20363;-54
2022/06/17 10:42:46;;;;;;;;;;;23.50;96.30;;;;;;5056587;28;20336;-56
2022/06/17 10:45:13;;;;;;;;;;;23.50;96.40;;;;;;5074292;28;20340;-55
2022/06/17 10:47:52;;;;;;;;;;;23.50;96.40;;;;;;5073454;28;19908;-55
2022/06/17 10:50:22;;;;;;;;;;;23.50;96.40;;;;;;5074434;28;20276;-54
2022/06/17 10:52:55;;;;;;;;;;;23.50;96.40;;;;;;5074503;28;20022;-53
2022/06/17 10:55:25;;;;;;;;;;;23.50;96.40;;;;;;5074036;28;19927;-54
2022/06/17 10:58:09;;;;;;;;;;;23.50;96.40;;;;;;5073938;28;19909;-56
2022/06/17 11:00:40;;;;;;;;;;;23.50;96.40;;;;;;5073910;28;19908;-55
2022/06/17 11:03:17;;;;;;;;;;;23.50;96.40;;;;;;5074312;28;19915;-56
2022/06/17 11:05:50;;;;;;;;;;;23.50;96.40;;;;;;5074213;28;19912;-54
2022/06/17 11:08:20;;;;;;;;;;;23.50;96.50;;;;;;5074330;28;19999;-55
2022/06/17 11:10:50;;;;;;;;;;;23.50;96.40;;;;;;5074213;28;20008;-51
2022/06/17 11:13:16;;;;;;;;;;;23.60;96.50;;;;;;5074016;28;19908;-55
2022/06/17 11:15:46;;;;;;;;;;;23.50;96.40;;;;;;5073651;28;19923;-52
2022/06/17 11:18:17;;;;;;;;;;;23.50;96.50;;;;;;5056141;28;19915;-56
2022/06/17 11:20:53;;;;;;;;;;;23.50;96.50;;;;;;5073892;28;20386;-54
2022/06/17 11:23:20;;;;;;;;;;;23.50;96.50;;;;;;5073629;28;19954;-53
2022/06/17 11:25:46;;;;;;;;;;;23.50;96.50;;;;;;5055321;28;19913;-55
2022/06/17 11:28:12;;;;;;;;;;;23.50;96.50;;;;;;5073822;28;19915;-55
2022/06/17 11:30:49;;;;;;;;;;;23.50;96.50;;;;;;5056016;28;19958;-53
2022/06/17 11:33:20;;;;;;;;;;;23.50;96.50;;;;;;5074084;28;20317;-56
2022/06/17 11:35:46;;;;;;;;;;;23.50;96.50;;;;;;5074019;28;19920;-56
2022/06/17 11:38:14;;;;;;;;;;;23.50;96.50;;;;;;5073891;28;19916;-56
2022/06/17 11:40:50;;;;;;;;;;;23.50;96.50;;;;;;5073604;28;20378;-54
2022/06/17 11:43:24;;;;;;;;;;;23.60;96.50;;;;;;5073683;28;19909;-54
2022/06/17 11:45:50;;;;;;;;;;;23.50;96.50;;;;;;5073507;28;19991;-54
2022/06/17 11:48:18;;;;;;;;;;;23.50;96.50;;;;;;5073591;28;19920;-54
2022/06/17 11:51:04;;;;;;;;;;;23.50;96.50;;;;;;5073410;28;19916;-54
2022/06/17 11:53:31;;;;;;;;;;;23.50;96.50;;;;;;5073493;28;20328;-55
2022/06/17 11:55:57;;;;;;;;;;;23.60;96.60;;;;;;5073440;28;19920;-55
2022/06/17 11:58:22;;;;;;;;;;;23.50;96.50;;;;;;5055216;28;19974;-55
2022/06/17 12:00:52;;;;;;;;;;;23.50;96.50;;;;;;5077257;28;19916;-56
2022/06/17 12:03:38;;;;;;;;;;;23.50;96.50;;;;;;5077528;28;19908;-53
2022/06/17 12:06:05;;;;;;;;;;;23.60;96.60;;;;;;5076996;28;19908;-54
2022/06/17 12:08:34;;;;;;;;;;;23.60;96.60;;;;;;5077299;28;20271;-56
2022/06/17 12:11:05;;;;;;;;;;;23.50;96.50;;;;;;5077487;28;19915;-56
2022/06/17 12:13:33;;;;;;;;;;;23.60;96.60;;;;;;5077081;28;19909;-54
2022/06/17 12:16:11;;;;;;;;;;;23.60;96.60;;;;;;5077382;28;19958;-56
2022/06/17 12:18:40;;;;;;;;;;;23.50;96.60;;;;;;5077022;28;20359;-54
2022/06/17 12:21:11;;;;;;;;;;;23.60;96.60;;;;;;5077130;28;20011;-53
2022/06/17 12:23:39;;;;;;;;;;;23.60;96.60;;;;;;5077311;28;19916;-55
2022/06/17 12:26:10;;;;;;;;;;;23.60;96.60;;;;;;5076905;28;20255;-56
2022/06/17 12:28:41;;;;;;;;;;;23.60;96.60;;;;;;5077156;28;20377;-55
2022/06/17 12:31:30;;;;;;;;;;;23.60;96.60;;;;;;5077135;28;19915;-55
2022/06/17 12:34:08;;;;;;;;;;;23.50;96.60;;;;;;5077342;28;19970;-56
2022/06/17 12:36:37;;;;;;;;;;;23.60;96.60;;;;;;5076993;28;19912;-53
2022/06/17 12:39:26;;;;;;;;;;;23.60;96.60;;;;;;5076888;28;19912;-56
2022/06/17 12:42:04;;;;;;;;;;;23.50;96.50;;;;;;5063473;28;19915;-55
2022/06/17 12:44:39;;;;;;;;;;;23.50;96.60;;;;;;5076958;28;20002;-56
2022/06/17 12:47:27;;;;;;;;;;;23.60;96.60;;;;;;5076706;28;20335;-55
2022/06/17 12:53:16;;;;;;;;;;;23.50;96.50;;;;;;5076751;28;20001;-54
2022/06/17 12:56:00;;;;;;;;;;;23.60;96.60;;;;;;5076165;28;19924;-56
2022/06/17 12:58:45;;;;;;;;;;;23.60;96.60;;;;;;5076273;28;20331;-56
2022/06/17 13:01:17;;;;;;;;;;;23.60;96.60;;;;;;5076703;28;20003;-55
2022/06/17 13:03:54;;;;;;;;;;;23.60;96.60;;;;;;5076686;28;19918;-54
2022/06/17 13:06:25;;;;;;;;;;;23.50;96.60;;;;;;5058360;28;19909;-53
2022/06/17 13:09:08;;;;;;;;;;;23.60;96.60;;;;;;5076128;28;20348;-54
2022/06/17 13:11:36;;;;;;;;;;;23.60;96.60;;;;;;5075709;28;19908;-54
2022/06/17 13:14:09;;;;;;;;;;;23.50;96.60;;;;;;5075987;28;19958;-56
2022/06/17 13:16:38;;;;;;;;;;;23.60;96.80;;;;;;5076651;28;20029;-56
2022/06/17 13:19:03;;;;;;;;;;;23.60;96.60;;;;;;5075940;28;19916;-56
2022/06/17 13:21:49;;;;;;;;;;;23.60;96.60;;;;;;5058257;28;19908;-52
2022/06/17 13:24:18;;;;;;;;;;;23.60;96.60;;;;;;5075214;28;20003;-56
2022/06/17 13:26:47;;;;;;;;;;;23.60;96.60;;;;;;5058213;28;19912;-56
2022/06/17 13:29:42;;;;;;;;;;;23.60;96.60;;;;;;5075877;28;20120;-53
2022/06/17 13:32:12;;;;;;;;;;;23.60;96.60;;;;;;5054295;28;19992;-55
2022/06/17 13:35:08;;;;;;;;;;;23.60;96.60;;;;;;5075988;28;20278;-54
2022/06/17 13:37:36;;;;;;;;;;;23.60;96.60;;;;;;5054162;28;19938;-55
2022/06/17 13:40:10;;;;;;;;;;;23.60;96.60;;;;;;5075470;28;20347;-55
2022/06/17 13:42:36;;;;;;;;;;;23.60;96.60;;;;;;5075688;28;19962;-54
2022/06/17 13:45:20;;;;;;;;;;;23.60;96.60;;;;;;5075961;28;19961;-54
2022/06/17 13:48:07;;;;;;;;;;;23.60;96.60;;;;;;5075812;28;19916;-54
2022/06/17 13:50:41;;;;;;;;;;;23.60;96.60;;;;;;5076086;28;19931;-53
2022/06/17 13:53:10;;;;;;;;;;;23.60;96.60;;;;;;5075280;28;20279;-53
2022/06/17 13:55:42;;;;;;;;;;;23.60;96.60;;;;;;5075326;28;19943;-55
2022/06/17 13:58:26;;;;;;;;;;;23.60;96.60;;;;;;5075874;28;19916;-54
2022/06/17 14:00:53;;;;;;;;;;;23.60;96.60;;;;;;5075202;28;19908;-55
2022/06/17 14:03:21;;;;;;;;;;;23.60;96.60;;;;;;5075181;28;19908;-56
2022/06/17 14:05:55;;;;;;;;;;;23.60;96.60;;;;;;5075134;28;19915;-54
2022/06/17 14:08:41;;;;;;;;;;;23.60;96.60;;;;;;5074757;28;20332;-56
2022/06/17 14:14:12;;;;;;;;;;;23.60;96.70;;;;;;5075288;28;19919;-53
2022/06/17 14:16:37;;;;;;;;;;;23.60;96.60;;;;;;5074777;28;19919;-55
2022/06/17 14:19:07;;;;;;;;;;;23.60;96.60;;;;;;5057253;28;19912;-55
2022/06/17 14:21:34;;;;;;;;;;;23.60;96.60;;;;;;5074902;28;19912;-53
2022/06/17 14:24:00;;;;;;;;;;;23.60;96.60;;;;;;5074104;28;19977;-57
2022/06/17 14:26:44;;;;;;;;;;;23.60;96.60;;;;;;5075278;28;20343;-55
2022/06/17 14:29:13;;;;;;;;;;;23.60;96.70;;;;;;5074987;28;19909;-55
2022/06/17 14:31:39;;;;;;;;;;;23.60;96.60;;;;;;5075073;28;20000;-53
2022/06/17 14:34:22;;;;;;;;;;;23.60;96.70;;;;;;5074506;28;20013;-56
2022/06/17 14:37:08;;;;;;;;;;;23.60;96.70;;;;;;5074337;28;20342;-56
2022/06/17 14:39:33;;;;;;;;;;;23.60;96.70;;;;;;5073679;28;20235;-54
2022/06/17 14:42:08;;;;;;;;;;;23.60;96.60;;;;;;5074755;28;20003;-56
2022/06/17 14:44:41;;;;;;;;;;;23.60;96.70;;;;;;5056783;28;19908;-56